Международный

Карта отелей и гостиниц, располагающихся рядом с аэропортом Международный :

Международный
Львов
Львовская область 49° 48' 34.8012" N, 23° 57' 30.5388" E
Код аэродрома ИКАО
UKLL
Код аэродрома RU
УКЛЛ
Координаты
N49.80967° E023.95848°
Превышение над уровнем моря
328
Основная полоса
13/31
Курс магнитный
130,2/310,2
Длина основной ВПП
3346
Ширина основной ВПП
45
Покрытие основной ВПП
Твёрдое (цементобетон)
Освещение ВПП
Постоянное
Тип: 
Аэродром
Принадлежность: 
ГА
Статус: 
Действующий
Сайт: 
http://www.airport.lviv.ua/
Страна: 
Украина
Регион: 
Львовская область
Город: 
Львов
Дополнительная информация: 
Гражданская авиационная администрация. Ранее АД назывался "Скнилов".
Погода: 

Авиационная погода в аэропорту Международный

Регион: 
Погода METAR: 
UKLL 241500Z 30002MPS 270V330 9999 BKN043 06/M00 Q1032 R31/CLRD// NOSIG
Время наблюдения
2021-10-24T15:00:00Z
Температура C
6.0
Точка росы
0.0
Направление ветра
300
Скорость ветра (узлы)
4
Метео видимость
6.21
Явления погоды
Условия полета
VFR
Аэропорт подробнее: 

Найти трансфер

С помощью этой формы Вы можете найти трансфер из аэропорта Международный в город, аэропорт или вокзал:

Карта места

Javascript is required to view this map.

Погода в аэропортах:

Авиационная погода в Рощино

Регион: 
Погода METAR: 
USTR 241500Z 14006MPS 3200 -SHRA BR SCT007 OVC015CB 06/06 Q1004 R21/290060 R30/290060 TEMPO 3100 -SHRA BR BKN003 BKN016CB
Время наблюдения
2021-10-24T15:00:00Z
Температура C
6.0
Точка росы
6.0
Направление ветра
140
Скорость ветра (узлы)
12
Метео видимость
1.99
Явления погоды
-SHRA BR
Условия полета
IFR
Аэропорт подробнее: 

Авиационная погода в Чимкенте

Регион: 
Погода METAR: 
UAII 241500Z 00000MPS 5000 FU NSC 11/02 Q1017 R28/0///70 NOSIG RMK QFE726/0968
Время наблюдения
2021-10-24T15:00:00Z
Температура C
11.0
Точка росы
2.0
Направление ветра
0
Скорость ветра (узлы)
0
Метео видимость
3.11
Явления погоды
FU
Условия полета
MVFR
Аэропорт подробнее: 

Авиационная погода в Зонгулдаке

Регион: 
Погода METAR: 
LTAS 241350Z 04003KT 340V110 6000 -SHRA FEW009 BKN023 BKN080 12/12 Q1026
Время наблюдения
2021-10-24T13:50:00Z
Температура C
12.0
Точка росы
12.0
Направление ветра
40
Скорость ветра (узлы)
3
Метео видимость
3.73
Явления погоды
-SHRA
Условия полета
MVFR

Авиационная погода в Якутске

Регион: 
Погода METAR: 
UEEE 241700Z 22002MPS 9999 -SHSN SCT040CB 00/M01 Q1003 R23L/150156 NOSIG RMK QFE743
Время наблюдения
2021-10-24T17:00:00Z
Температура C
0.0
Точка росы
-1.0
Направление ветра
220
Скорость ветра (узлы)
4
Метео видимость
6.21
Явления погоды
-SHSN
Условия полета
VFR
Аэропорт подробнее: